createdAt,value
2023-09-17T00:02:42.124Z,2.40
2023-09-17T00:05:44.697Z,2.28
2023-09-17T00:08:48.615Z,2.20
2023-09-17T00:11:51.205Z,2.30
2023-09-17T00:14:53.964Z,2.80
2023-09-17T00:17:56.617Z,2.88
2023-09-17T00:20:59.198Z,2.35
2023-09-17T00:24:03.622Z,2.10
2023-09-17T00:27:06.741Z,2.47
2023-09-17T00:30:10.879Z,2.38
2023-09-17T00:33:13.662Z,2.78
2023-09-17T00:39:20.099Z,2.08
2023-09-17T00:42:22.704Z,2.35
2023-09-17T00:45:25.281Z,2.65
2023-09-17T00:48:28.527Z,2.30
2023-09-17T00:51:31.166Z,2.72
2023-09-17T00:54:35.078Z,2.30
2023-09-17T00:57:38.738Z,2.95
2023-09-17T01:00:41.592Z,2.40
2023-09-17T01:06:47.395Z,2.08
2023-09-17T01:09:52.324Z,2.20
2023-09-17T01:12:54.886Z,2.20
2023-09-17T01:16:00.245Z,1.98
2023-09-17T01:19:04.991Z,1.90
2023-09-17T01:22:16.291Z,2.30
2023-09-17T01:25:25.679Z,2.30
2023-09-17T01:28:32.760Z,2.08
2023-09-17T01:31:35.539Z,2.30
2023-09-17T01:37:46.512Z,2.08
2023-09-17T01:40:50.447Z,2.22
2023-09-17T01:43:54.654Z,2.30
2023-09-17T01:46:58.622Z,2.08
2023-09-17T01:50:01.966Z,2.50
2023-09-17T01:53:04.792Z,2.38
2023-09-17T01:59:11.392Z,2.20
2023-09-17T02:02:14.075Z,2.40
2023-09-17T02:11:23.089Z,2.13
2023-09-17T02:14:26.963Z,2.40
2023-09-17T02:17:29.661Z,2.60
2023-09-17T02:20:32.323Z,2.38
2023-09-17T02:23:35.789Z,2.38
2023-09-17T02:26:38.431Z,2.20
2023-09-17T02:29:42.455Z,2.10
2023-09-17T02:32:45.332Z,2.25
2023-09-17T02:35:47.937Z,2.88
2023-09-17T02:38:50.504Z,2.25
2023-09-17T02:41:53.068Z,2.38
2023-09-17T02:44:56.909Z,2.60
2023-09-17T02:47:59.455Z,2.80
2023-09-17T02:51:03.127Z,2.60
2023-09-17T02:54:05.983Z,3.05
2023-09-17T03:00:14.277Z,2.38
2023-09-17T03:03:17.051Z,2.70
2023-09-17T03:09:22.222Z,2.60
2023-09-17T03:12:24.760Z,2.60
2023-09-17T03:15:29.707Z,2.72
2023-09-17T03:18:32.278Z,2.40
2023-09-17T03:21:39.337Z,2.60
2023-09-17T03:24:57.750Z,2.50
2023-09-17T03:28:04.339Z,2.73
2023-09-17T03:31:08.235Z,2.60
2023-09-17T03:34:10.889Z,2.78
2023-09-17T03:37:14.542Z,3.05
2023-09-17T03:40:17.233Z,2.97
2023-09-17T03:43:20.220Z,2.50
2023-09-17T03:46:24.264Z,2.72
2023-09-17T03:49:27.427Z,2.53
2023-09-17T03:52:30.465Z,2.60
2023-09-17T03:55:34.660Z,2.88
2023-09-17T03:58:37.383Z,3.05
2023-09-17T04:01:41.498Z,2.75
2023-09-17T04:04:44.218Z,3.80
2023-09-17T04:07:47.702Z,4.10
2023-09-17T04:10:51.347Z,4.65
2023-09-17T04:13:55.558Z,3.95
2023-09-17T04:17:01.202Z,3.25
2023-09-17T04:20:06.185Z,3.45
2023-09-17T04:23:09.032Z,3.13
2023-09-17T04:29:16.373Z,3.83
2023-09-17T04:32:20.362Z,3.17
2023-09-17T04:35:23.000Z,3.05
2023-09-17T04:38:25.720Z,2.72
2023-09-17T04:41:28.556Z,2.90
2023-09-17T04:44:31.075Z,3.05
2023-09-17T04:47:36.711Z,2.97
2023-09-17T04:50:41.512Z,3.22
2023-09-17T04:53:44.231Z,3.40
2023-09-17T04:56:46.763Z,3.30
2023-09-17T04:59:50.617Z,3.20
2023-09-17T05:02:54.759Z,3.10
2023-09-17T05:05:57.381Z,3.50
2023-09-17T05:08:59.894Z,3.17
2023-09-17T05:12:02.809Z,2.95
2023-09-17T05:18:11.292Z,3.10
2023-09-17T05:21:13.914Z,3.17
2023-09-17T05:24:16.462Z,3.17
2023-09-17T05:27:20.274Z,3.55
2023-09-17T05:30:22.869Z,3.35
2023-09-17T05:33:27.455Z,3.45
2023-09-17T05:36:30.512Z,3.10
2023-09-17T05:39:33.097Z,3.15
2023-09-17T05:42:35.639Z,3.63
2023-09-17T05:45:38.411Z,3.25
2023-09-17T05:48:42.410Z,3.00
2023-09-17T05:51:45.692Z,3.50
2023-09-17T05:54:48.210Z,3.00
2023-09-17T05:57:50.742Z,3.33
2023-09-17T06:00:54.490Z,3.42
2023-09-17T06:03:59.176Z,3.50
2023-09-17T06:07:01.924Z,3.20
2023-09-17T06:10:06.104Z,4.00
2023-09-17T06:13:09.210Z,3.47
2023-09-17T06:16:12.102Z,3.60
2023-09-17T06:22:18.981Z,3.70
2023-09-17T06:25:24.558Z,3.85
2023-09-17T06:28:27.265Z,3.63
2023-09-17T06:31:30.148Z,4.03
2023-09-17T06:37:36.687Z,3.43
2023-09-17T06:40:39.259Z,3.63
2023-09-17T06:43:41.860Z,3.75
2023-09-17T06:46:44.546Z,3.35
2023-09-17T06:49:48.568Z,3.47
2023-09-17T06:52:51.468Z,3.23
2023-09-17T06:55:54.292Z,4.20
2023-09-17T07:01:59.523Z,3.53
2023-09-17T07:05:05.120Z,3.80
2023-09-17T07:08:08.114Z,3.30
2023-09-17T07:14:13.163Z,3.20
2023-09-17T07:17:16.278Z,3.90
2023-09-17T07:20:20.421Z,4.03
2023-09-17T07:23:22.997Z,3.77
2023-09-17T07:26:25.604Z,3.83
2023-09-17T07:29:29.786Z,3.17
2023-09-17T07:32:32.570Z,3.45
2023-09-17T07:38:39.572Z,3.65
2023-09-17T07:41:42.117Z,3.50
2023-09-17T07:44:44.825Z,3.45
2023-09-17T07:47:47.471Z,3.65
2023-09-17T07:50:58.641Z,3.47
2023-09-17T07:54:01.191Z,3.58
2023-09-17T07:57:05.185Z,3.20
2023-09-17T08:00:09.269Z,3.30
2023-09-17T08:03:12.013Z,3.78
2023-09-17T08:06:16.033Z,3.50
2023-09-17T08:09:19.111Z,3.67
2023-09-17T08:12:21.626Z,3.88
2023-09-17T08:15:24.639Z,2.83
2023-09-17T08:21:33.006Z,3.50
2023-09-17T08:24:35.988Z,3.40
2023-09-17T08:27:38.564Z,3.25
2023-09-17T08:30:41.885Z,3.63
2023-09-17T08:33:46.259Z,3.63
2023-09-17T08:36:50.268Z,3.40
2023-09-17T08:39:52.903Z,3.35
2023-09-17T08:42:56.137Z,3.25
2023-09-17T08:45:59.252Z,3.20
2023-09-17T08:49:03.001Z,3.10
2023-09-17T08:52:09.210Z,3.40
2023-09-17T08:55:12.088Z,3.40
2023-09-17T09:01:22.774Z,3.03
2023-09-17T09:04:25.670Z,3.42
2023-09-17T09:10:33.510Z,3.00
2023-09-17T09:13:36.242Z,2.90
2023-09-17T09:16:38.989Z,2.72
2023-09-17T09:19:41.968Z,2.88
2023-09-17T09:25:49.587Z,2.80
2023-09-17T09:28:52.297Z,2.95
2023-09-17T09:31:55.006Z,2.85
2023-09-17T09:38:03.925Z,3.25
2023-09-17T09:41:06.551Z,2.72
2023-09-17T09:44:09.771Z,2.75
2023-09-17T09:47:15.535Z,3.08
2023-09-17T09:50:24.439Z,2.78
2023-09-17T09:53:28.399Z,3.10
2023-09-17T09:56:32.031Z,2.58
2023-09-17T09:59:36.454Z,2.67
2023-09-17T10:02:40.101Z,2.78
2023-09-17T10:05:42.967Z,3.30
2023-09-17T10:11:50.308Z,2.83
2023-09-17T10:14:52.940Z,2.35
2023-09-17T10:17:56.197Z,2.60
2023-09-17T10:20:59.101Z,2.25
2023-09-17T10:27:07.800Z,2.60
2023-09-17T10:30:10.800Z,2.38
2023-09-17T10:33:14.330Z,2.78
2023-09-17T10:36:18.633Z,2.35
2023-09-17T10:39:24.915Z,2.13
2023-09-17T10:42:28.114Z,2.53
2023-09-17T10:45:32.417Z,2.53
2023-09-17T10:48:36.040Z,1.95
2023-09-17T10:51:40.772Z,2.40
2023-09-17T10:54:45.243Z,2.28
2023-09-17T10:57:49.332Z,2.10
2023-09-17T11:00:53.017Z,2.25
2023-09-17T11:03:59.664Z,1.98
2023-09-17T11:07:02.740Z,2.63
2023-09-17T11:10:14.539Z,2.38
2023-09-17T11:16:31.602Z,2.53
2023-09-17T11:19:34.652Z,1.73
2023-09-17T11:22:37.814Z,2.42
2023-09-17T11:25:41.937Z,1.80
2023-09-17T11:28:44.576Z,2.58
2023-09-17T11:32:04.274Z,1.83
2023-09-17T11:35:08.289Z,1.58
2023-09-17T11:38:10.970Z,1.90
2023-09-17T11:41:16.396Z,1.80
2023-09-17T11:44:19.108Z,1.70
2023-09-17T11:50:25.918Z,1.95
2023-09-17T11:53:28.457Z,1.90
2023-09-17T11:56:33.566Z,2.45
2023-09-17T11:59:39.894Z,2.25
2023-09-17T12:02:44.198Z,1.80
2023-09-17T12:05:46.887Z,1.80
2023-09-17T12:08:49.737Z,1.80
2023-09-17T12:11:53.757Z,1.90
2023-09-17T12:14:56.540Z,2.00
2023-09-17T12:21:03.456Z,1.73
2023-09-17T12:24:09.436Z,1.83
2023-09-17T12:27:25.714Z,1.60
2023-09-17T12:30:30.632Z,1.67
2023-09-17T12:33:33.316Z,2.15
2023-09-17T12:36:35.862Z,1.73
2023-09-17T12:39:38.409Z,1.95
2023-09-17T12:42:42.330Z,2.08
2023-09-17T12:45:45.036Z,2.08
2023-09-17T12:51:52.472Z,1.40
2023-09-17T12:54:56.302Z,2.03
2023-09-17T12:58:00.480Z,1.98
2023-09-17T13:01:10.354Z,1.73
2023-09-17T13:04:13.086Z,2.33
2023-09-17T13:10:21.700Z,2.40
2023-09-17T13:13:26.198Z,1.92
2023-09-17T13:16:28.848Z,1.30
2023-09-17T13:19:31.444Z,1.65
2023-09-17T13:22:36.923Z,2.47
2023-09-17T13:25:39.604Z,1.70
2023-09-17T13:28:43.692Z,1.58
2023-09-17T13:31:49.657Z,2.25
2023-09-17T13:34:52.548Z,2.42
2023-09-17T13:40:57.690Z,1.60
2023-09-17T13:44:01.650Z,2.03
2023-09-17T13:47:04.804Z,1.92
2023-09-17T13:50:09.342Z,2.03
2023-09-17T13:53:12.024Z,1.70
2023-09-17T13:59:18.453Z,1.40
2023-09-17T14:02:21.072Z,1.77
2023-09-17T14:05:23.784Z,2.25
2023-09-17T14:11:28.927Z,1.40
2023-09-17T14:14:32.822Z,1.58
2023-09-17T14:17:35.382Z,1.58
2023-09-17T14:20:37.971Z,1.40
2023-09-17T14:23:40.986Z,1.95
2023-09-17T14:26:44.609Z,1.73
2023-09-17T14:29:48.854Z,1.75
2023-09-17T14:32:53.919Z,1.92
2023-09-17T14:35:56.558Z,1.88
2023-09-17T14:38:59.096Z,1.70
2023-09-17T14:42:01.713Z,2.08
2023-09-17T14:45:06.523Z,1.80
2023-09-17T14:48:09.089Z,5.72
2023-09-17T14:51:11.669Z,6.75
2023-09-17T14:54:14.262Z,4.32
2023-09-17T14:57:16.760Z,4.70
2023-09-17T15:00:20.806Z,5.43
2023-09-17T15:03:26.266Z,5.55
2023-09-17T15:06:30.547Z,6.30
2023-09-17T15:09:33.368Z,5.70
2023-09-17T15:12:35.891Z,5.15
2023-09-17T15:15:40.648Z,5.70
2023-09-17T15:18:43.202Z,5.97
2023-09-17T15:21:45.757Z,6.30
2023-09-17T15:24:48.575Z,6.18
2023-09-17T15:27:51.084Z,4.82
2023-09-17T15:30:55.322Z,7.07
2023-09-17T15:33:57.945Z,5.30
2023-09-17T15:37:00.654Z,6.22
2023-09-17T15:40:04.762Z,5.85
2023-09-17T15:43:07.583Z,5.72
2023-09-17T15:46:11.472Z,5.93
2023-09-17T15:49:14.053Z,6.18
2023-09-17T15:52:18.001Z,5.50
2023-09-17T15:55:20.537Z,5.45
2023-09-17T15:58:23.102Z,6.00
2023-09-17T16:01:27.079Z,5.65
2023-09-17T16:04:29.881Z,5.72
2023-09-17T16:10:37.074Z,4.88
2023-09-17T16:13:39.672Z,5.40
2023-09-17T16:16:43.940Z,5.32
2023-09-17T16:19:53.577Z,4.55
2023-09-17T16:22:56.268Z,4.95
2023-09-17T16:29:02.132Z,4.90
2023-09-17T16:32:06.178Z,4.18
2023-09-17T16:35:09.713Z,4.85
2023-09-17T16:38:12.343Z,4.88
2023-09-17T16:41:15.412Z,5.22
2023-09-17T16:44:18.070Z,4.95
2023-09-17T16:47:22.457Z,4.75
2023-09-17T16:50:27.354Z,4.65
2023-09-17T16:53:31.625Z,4.70
2023-09-17T16:56:34.303Z,4.75
2023-09-17T17:02:40.843Z,3.70
2023-09-17T17:05:44.520Z,4.03
2023-09-17T17:08:47.271Z,4.28
2023-09-17T17:11:51.111Z,3.70
2023-09-17T17:14:55.358Z,3.92
2023-09-17T17:17:59.335Z,4.78
2023-09-17T17:21:03.843Z,4.13
2023-09-17T17:24:07.822Z,4.35
2023-09-17T17:27:10.333Z,3.95
2023-09-17T17:30:13.345Z,4.13
2023-09-17T17:33:17.435Z,3.90
2023-09-17T17:36:19.991Z,3.55
2023-09-17T17:39:22.654Z,4.07
2023-09-17T17:42:25.161Z,4.70
2023-09-17T17:45:28.089Z,3.17
2023-09-17T17:48:33.018Z,4.13
2023-09-17T17:51:35.556Z,3.15
2023-09-17T17:54:38.066Z,3.50
2023-09-17T17:57:40.823Z,3.50
2023-09-17T18:03:48.036Z,3.63
2023-09-17T18:06:51.890Z,3.35
2023-09-17T18:09:54.479Z,4.07
2023-09-17T18:12:57.000Z,2.95
2023-09-17T18:16:00.440Z,3.50
2023-09-17T18:19:04.739Z,3.25
2023-09-17T18:22:07.362Z,3.08
2023-09-17T18:25:10.141Z,3.15
2023-09-17T18:31:15.267Z,2.97
2023-09-17T18:34:19.160Z,3.33
2023-09-17T18:37:21.715Z,2.55
2023-09-17T18:40:24.331Z,2.60
2023-09-17T18:43:26.866Z,3.50
2023-09-17T18:46:30.704Z,2.75
2023-09-17T18:49:34.619Z,2.70
2023-09-17T18:52:37.679Z,3.20
2023-09-17T18:55:40.260Z,3.08
2023-09-17T18:58:42.758Z,2.67
2023-09-17T19:01:45.409Z,2.60
2023-09-17T19:04:49.640Z,2.35
2023-09-17T19:07:52.304Z,2.35
2023-09-17T19:10:54.993Z,2.35
2023-09-17T19:13:58.290Z,2.85
2023-09-17T19:17:04.755Z,2.70
2023-09-17T19:20:09.822Z,2.60
2023-09-17T19:23:12.510Z,2.17
2023-09-17T19:29:20.629Z,2.40
2023-09-17T19:32:23.319Z,2.58
2023-09-17T19:38:30.556Z,2.03
2023-09-17T19:41:34.818Z,2.08
2023-09-17T19:44:39.092Z,1.90
2023-09-17T19:47:41.800Z,2.38
2023-09-17T19:53:48.127Z,2.10
2023-09-17T19:56:50.678Z,2.28
2023-09-17T19:59:53.559Z,2.13
2023-09-17T20:02:56.983Z,2.20
2023-09-17T20:06:01.565Z,2.17
2023-09-17T20:09:04.339Z,2.30
2023-09-17T20:15:10.086Z,1.88
2023-09-17T20:21:17.096Z,2.03
2023-09-17T20:24:19.688Z,2.13
2023-09-17T20:27:22.327Z,2.05
2023-09-17T20:30:25.407Z,2.22
2023-09-17T20:33:28.068Z,1.60
2023-09-17T20:36:31.977Z,1.67
2023-09-17T20:39:34.520Z,2.10
2023-09-17T20:42:37.146Z,1.98
2023-09-17T20:45:39.713Z,1.92
2023-09-17T20:48:42.269Z,2.13
2023-09-17T20:51:46.220Z,2.00
2023-09-17T20:54:48.733Z,1.95
2023-09-17T20:57:51.273Z,2.35
2023-09-17T21:00:53.879Z,1.73
2023-09-17T21:03:56.699Z,1.92
2023-09-17T21:10:04.856Z,1.80
2023-09-17T21:13:09.533Z,1.80
2023-09-17T21:16:13.196Z,2.22
2023-09-17T21:19:17.907Z,1.75
2023-09-17T21:25:24.318Z,1.83
2023-09-17T21:31:29.443Z,1.70
2023-09-17T21:37:35.995Z,1.45
2023-09-17T21:40:38.622Z,1.60
2023-09-17T21:43:41.163Z,2.28
2023-09-17T21:46:43.806Z,1.50
2023-09-17T21:49:46.385Z,1.70
2023-09-17T21:52:50.274Z,1.80
2023-09-17T21:55:52.944Z,1.85
2023-09-17T21:58:55.585Z,1.88
2023-09-17T22:01:58.187Z,1.60
2023-09-17T22:05:00.827Z,1.40
2023-09-17T22:08:05.596Z,1.70
2023-09-17T22:11:08.755Z,1.52
2023-09-17T22:14:11.489Z,1.80
2023-09-17T22:20:19.874Z,1.77
2023-09-17T22:23:25.559Z,1.50
2023-09-17T22:26:28.226Z,2.75
2023-09-17T22:29:30.863Z,2.88
2023-09-17T22:32:33.523Z,3.28
2023-09-17T22:35:36.701Z,2.13
2023-09-17T22:38:43.149Z,2.95
2023-09-17T22:41:45.898Z,2.53
2023-09-17T22:47:50.928Z,2.55
2023-09-17T22:50:55.429Z,2.22
2023-09-17T22:54:00.436Z,2.42
2023-09-17T22:57:03.027Z,2.13
2023-09-17T23:00:09.605Z,2.08
2023-09-17T23:03:12.525Z,2.00
2023-09-17T23:06:15.184Z,2.40
2023-09-17T23:09:19.063Z,1.80
2023-09-17T23:12:22.184Z,2.10
2023-09-17T23:15:25.907Z,1.90
2023-09-17T23:18:30.811Z,1.88
2023-09-17T23:21:33.343Z,1.88
2023-09-17T23:24:37.212Z,1.88
2023-09-17T23:27:41.617Z,2.15
2023-09-17T23:30:44.208Z,1.83
2023-09-17T23:33:47.056Z,1.52
2023-09-17T23:39:53.967Z,1.50
2023-09-17T23:42:56.814Z,1.77
2023-09-17T23:45:59.488Z,2.10
2023-09-17T23:52:05.756Z,1.90
2023-09-17T23:55:10.355Z,1.60
2023-09-17T23:58:12.908Z,1.60
